createdAt,value
2023-02-06T00:01:40.979Z,87.25
2023-02-06T00:04:08.305Z,87.35
2023-02-06T00:06:37.997Z,88.23
2023-02-06T00:09:06.417Z,87.76
2023-02-06T00:11:34.075Z,88.30
2023-02-06T00:14:01.586Z,88.48
2023-02-06T00:16:32.142Z,88.75
2023-02-06T00:19:00.101Z,87.95
2023-02-06T00:21:28.700Z,86.97
2023-02-06T00:23:57.969Z,86.71
2023-02-06T00:26:25.778Z,87.47
2023-02-06T00:28:56.142Z,86.85
2023-02-06T00:31:25.067Z,87.38
2023-02-06T00:33:52.431Z,87.65
2023-02-06T00:36:19.954Z,88.37
2023-02-06T00:38:47.309Z,87.63
2023-02-06T00:41:17.375Z,88.02
2023-02-06T00:43:44.668Z,87.40
2023-02-06T00:46:12.330Z,86.48
2023-02-06T00:48:39.703Z,85.95
2023-02-06T00:51:07.022Z,85.12
2023-02-06T00:53:37.560Z,85.74
2023-02-06T00:56:05.183Z,85.26
2023-02-06T00:58:32.536Z,84.75
2023-02-06T01:00:59.865Z,85.06
2023-02-06T01:03:27.612Z,85.13
2023-02-06T01:05:55.022Z,85.19
2023-02-06T01:08:22.498Z,85.59
2023-02-06T01:10:52.221Z,85.62
2023-02-06T01:13:19.539Z,85.56
2023-02-06T01:15:46.932Z,85.24
2023-02-06T01:18:14.310Z,85.71
2023-02-06T01:20:41.731Z,85.48
2023-02-06T01:23:09.223Z,86.43
2023-02-06T01:25:39.733Z,85.91
2023-02-06T01:28:07.094Z,86.45
2023-02-06T01:30:34.517Z,85.81
2023-02-06T01:33:01.845Z,85.77
2023-02-06T01:35:29.780Z,86.56
2023-02-06T01:37:57.101Z,85.38
2023-02-06T01:40:24.513Z,86.35
2023-02-06T01:42:51.833Z,86.42
2023-02-06T01:45:36.452Z,86.75
2023-02-06T01:48:08.332Z,86.74
2023-02-06T01:50:36.911Z,87.30
2023-02-06T01:53:06.482Z,86.97
2023-02-06T01:55:37.791Z,86.82
2023-02-06T01:58:05.997Z,86.89
2023-02-06T02:00:33.532Z,87.05
2023-02-06T02:03:01.681Z,87.06
2023-02-06T02:05:33.107Z,86.61
2023-02-06T02:08:14.759Z,86.51
2023-02-06T02:10:42.556Z,86.80
2023-02-06T02:13:10.206Z,86.07
2023-02-06T02:16:00.816Z,86.37
2023-02-06T02:18:58.985Z,85.93
2023-02-06T02:21:35.112Z,85.90
2023-02-06T02:24:11.457Z,85.63
2023-02-06T02:26:39.849Z,86.28
2023-02-06T02:29:21.132Z,86.37
2023-02-06T02:31:48.446Z,86.80
2023-02-06T02:34:56.256Z,87.13
2023-02-06T02:37:23.585Z,87.09
2023-02-06T02:40:01.545Z,86.83
2023-02-06T02:42:59.709Z,87.54
2023-02-06T02:45:40.476Z,87.70
2023-02-06T02:48:14.189Z,87.71
2023-02-06T02:50:42.152Z,88.02
2023-02-06T02:53:11.043Z,87.97
2023-02-06T02:55:41.693Z,88.59
2023-02-06T02:58:13.361Z,87.80
2023-02-06T03:00:47.500Z,87.93
2023-02-06T03:03:18.084Z,87.48
2023-02-06T03:06:03.296Z,88.26
2023-02-06T03:08:33.609Z,88.39
2023-02-06T03:11:12.820Z,87.86
2023-02-06T03:14:03.920Z,87.97
2023-02-06T03:16:38.402Z,88.27
2023-02-06T03:19:13.778Z,89.51
2023-02-06T03:21:42.203Z,89.45
2023-02-06T03:24:19.902Z,90.04
2023-02-06T03:26:52.858Z,90.07
2023-02-06T03:29:20.688Z,90.66
2023-02-06T03:31:58.125Z,91.15
2023-02-06T03:34:35.059Z,91.98
2023-02-06T03:37:02.399Z,94.35
2023-02-06T03:39:32.161Z,93.90
2023-02-06T03:42:01.352Z,94.75
2023-02-06T03:44:33.611Z,94.35
2023-02-06T03:47:02.995Z,95.09
2023-02-06T03:49:32.673Z,95.44
2023-02-06T03:52:07.823Z,96.00
2023-02-06T03:54:39.351Z,96.35
2023-02-06T03:57:11.612Z,96.34
2023-02-06T03:59:39.026Z,96.29
2023-02-06T04:02:07.066Z,96.23
2023-02-06T04:04:38.744Z,94.44
2023-02-06T04:07:15.759Z,94.22
2023-02-06T04:09:43.272Z,94.09
2023-02-06T04:12:10.685Z,93.95
2023-02-06T04:14:38.264Z,95.54
2023-02-06T04:17:06.117Z,95.47
2023-02-06T04:19:34.222Z,95.34
2023-02-06T04:22:01.837Z,96.80
2023-02-06T04:24:30.921Z,97.49
2023-02-06T04:26:59.182Z,97.32
2023-02-06T04:29:26.596Z,98.73
2023-02-06T04:31:56.029Z,99.33
2023-02-06T04:34:23.425Z,99.44
2023-02-06T04:36:50.696Z,99.52
2023-02-06T04:39:18.089Z,100.00
2023-02-06T04:41:45.399Z,100.00
2023-02-06T04:44:12.790Z,99.74
2023-02-06T04:46:40.157Z,100.00
2023-02-06T04:49:07.497Z,100.00
2023-02-06T04:51:38.029Z,100.00
2023-02-06T04:54:05.885Z,100.00
2023-02-06T04:56:33.508Z,100.00
2023-02-06T04:59:01.229Z,100.00
2023-02-06T05:01:28.666Z,100.00
2023-02-06T05:03:58.628Z,100.00
2023-02-06T05:06:25.922Z,100.00
2023-02-06T05:08:53.263Z,100.00
2023-02-06T05:11:20.554Z,100.00
2023-02-06T05:13:47.936Z,100.00
2023-02-06T05:16:16.580Z,100.00
2023-02-06T05:18:47.272Z,100.00
2023-02-06T05:21:16.093Z,100.00
2023-02-06T05:23:43.432Z,100.00
2023-02-06T05:26:10.833Z,100.00
2023-02-06T05:28:38.196Z,100.00
2023-02-06T05:31:08.790Z,100.00
2023-02-06T05:33:36.305Z,100.00
2023-02-06T05:36:06.543Z,100.00
2023-02-06T05:38:36.288Z,100.00
2023-02-06T05:41:03.725Z,100.00
2023-02-06T05:43:31.088Z,100.00
2023-02-06T05:45:58.360Z,100.00
2023-02-06T05:48:28.733Z,100.00
2023-02-06T05:50:57.712Z,100.00
2023-02-06T05:53:25.208Z,100.00
2023-02-06T05:55:52.645Z,100.00
2023-02-06T05:58:20.114Z,100.00
2023-02-06T06:00:47.474Z,100.00
2023-02-06T06:03:14.846Z,100.00
2023-02-06T06:05:42.182Z,100.00
2023-02-06T06:08:09.525Z,100.00
2023-02-06T06:10:37.197Z,100.00
2023-02-06T06:13:04.612Z,100.00
2023-02-06T06:15:32.037Z,100.00
2023-02-06T06:17:59.633Z,100.00
2023-02-06T06:20:26.941Z,100.00
2023-02-06T06:22:54.239Z,100.00
2023-02-06T06:25:21.576Z,100.00
2023-02-06T06:27:48.992Z,100.00
2023-02-06T06:30:16.615Z,100.00
2023-02-06T06:32:44.088Z,100.00
2023-02-06T06:35:11.474Z,100.00
2023-02-06T06:37:38.854Z,99.13
2023-02-06T06:40:06.777Z,97.94
2023-02-06T06:42:34.216Z,98.10
2023-02-06T06:45:01.604Z,95.58
2023-02-06T06:47:28.934Z,95.31
2023-02-06T06:49:57.400Z,95.38
2023-02-06T06:52:25.853Z,95.82
2023-02-06T06:54:53.686Z,96.48
2023-02-06T06:57:22.148Z,95.82
2023-02-06T06:59:49.612Z,96.09
2023-02-06T07:02:17.590Z,95.24
2023-02-06T07:04:47.571Z,95.98
2023-02-06T07:07:14.919Z,95.39
2023-02-06T07:09:42.250Z,96.49
2023-02-06T07:12:09.613Z,97.13
2023-02-06T07:14:36.890Z,96.91
2023-02-06T07:17:04.235Z,95.54
2023-02-06T07:19:33.038Z,95.00
2023-02-06T07:22:00.372Z,93.86
2023-02-06T07:24:27.658Z,93.34
2023-02-06T07:26:55.071Z,94.04
2023-02-06T07:29:22.521Z,94.28
2023-02-06T07:31:50.122Z,95.51
2023-02-06T07:34:17.385Z,93.35
2023-02-06T07:36:44.719Z,91.33
2023-02-06T07:39:13.550Z,91.52
2023-02-06T07:41:41.102Z,91.02
2023-02-06T07:44:10.977Z,91.79
2023-02-06T07:46:38.329Z,91.73
2023-02-06T07:49:05.783Z,91.60
2023-02-06T07:51:33.180Z,93.18
2023-02-06T07:54:00.471Z,92.53
2023-02-06T07:56:27.881Z,93.37
2023-02-06T07:58:55.219Z,92.54
2023-02-06T08:01:23.601Z,92.00
2023-02-06T08:03:54.759Z,91.26
2023-02-06T08:06:24.542Z,90.44
2023-02-06T08:08:54.267Z,89.84
2023-02-06T08:11:25.189Z,91.15
2023-02-06T08:13:52.766Z,88.70
2023-02-06T08:16:22.246Z,88.20
2023-02-06T08:18:50.096Z,89.11
2023-02-06T08:21:20.824Z,88.95
2023-02-06T08:23:58.049Z,87.65
2023-02-06T08:26:27.820Z,86.66
2023-02-06T08:28:56.492Z,87.05
2023-02-06T08:31:30.740Z,85.19
2023-02-06T08:33:58.510Z,82.51
2023-02-06T08:36:27.247Z,83.03
2023-02-06T08:38:54.525Z,83.08
2023-02-06T08:41:26.047Z,82.23
2023-02-06T08:43:56.532Z,81.09
2023-02-06T08:46:26.898Z,81.33
2023-02-06T08:49:04.810Z,80.45
2023-02-06T08:51:33.665Z,79.70
2023-02-06T08:54:04.298Z,77.58
2023-02-06T08:56:33.860Z,77.42
2023-02-06T08:59:01.803Z,77.20
2023-02-06T09:01:32.142Z,76.98
2023-02-06T09:04:06.404Z,77.26
2023-02-06T09:06:38.456Z,75.59
2023-02-06T09:09:07.529Z,73.41
2023-02-06T09:11:35.705Z,74.66
2023-02-06T09:14:06.041Z,73.67
2023-02-06T09:16:34.165Z,71.17
2023-02-06T09:19:02.474Z,71.82
2023-02-06T09:21:32.776Z,69.22
2023-02-06T09:24:08.663Z,69.47
2023-02-06T09:26:58.017Z,70.51
2023-02-06T09:29:28.960Z,67.76
2023-02-06T09:31:57.482Z,69.16
2023-02-06T09:34:26.127Z,70.17
2023-02-06T09:36:57.769Z,69.42
2023-02-06T09:39:25.554Z,68.63
2023-02-06T09:42:03.136Z,68.06
2023-02-06T09:44:45.492Z,68.48
2023-02-06T09:47:32.205Z,66.80
2023-02-06T09:50:17.981Z,68.51
2023-02-06T09:53:22.577Z,67.72
2023-02-06T09:55:58.626Z,68.65
2023-02-06T09:58:56.711Z,69.59
2023-02-06T10:01:29.758Z,68.17
2023-02-06T10:04:31.873Z,68.53
2023-02-06T10:07:22.470Z,65.83
2023-02-06T10:09:56.264Z,67.15
2023-02-06T10:12:35.385Z,68.23
2023-02-06T10:15:17.040Z,66.38
2023-02-06T10:17:52.547Z,67.16
2023-02-06T10:20:33.313Z,66.51
2023-02-06T10:23:15.869Z,65.69
2023-02-06T10:26:22.148Z,64.40
2023-02-06T10:28:54.125Z,66.09
2023-02-06T10:31:21.467Z,66.45
2023-02-06T10:34:07.456Z,65.05
2023-02-06T10:36:46.279Z,64.73
2023-02-06T10:39:37.650Z,66.30
2023-02-06T10:42:21.784Z,67.01
2023-02-06T10:45:06.580Z,66.82
2023-02-06T10:47:49.481Z,63.98
2023-02-06T10:50:23.971Z,63.93
2023-02-06T10:52:52.545Z,63.46
2023-02-06T10:55:25.082Z,65.84
2023-02-06T10:58:22.499Z,65.28
2023-02-06T11:00:51.323Z,66.88
2023-02-06T11:03:26.837Z,64.77
2023-02-06T11:05:54.332Z,67.19
2023-02-06T11:08:30.062Z,67.08
2023-02-06T11:11:18.479Z,66.78
2023-02-06T11:13:48.760Z,66.68
2023-02-06T11:16:22.676Z,66.65
2023-02-06T11:18:51.319Z,66.13
2023-02-06T11:21:42.196Z,66.91
2023-02-06T11:24:15.422Z,64.55
2023-02-06T11:26:47.711Z,66.48
2023-02-06T11:29:22.578Z,65.69
2023-02-06T11:31:59.277Z,66.39
2023-02-06T11:34:44.105Z,67.22
2023-02-06T11:37:32.396Z,66.38
2023-02-06T11:40:14.804Z,67.06
2023-02-06T11:42:42.230Z,66.68
2023-02-06T11:45:31.153Z,66.78
2023-02-06T11:47:59.762Z,65.81
2023-02-06T11:50:35.356Z,67.04
2023-02-06T11:53:15.050Z,65.71
2023-02-06T11:55:43.427Z,65.12
2023-02-06T11:58:15.873Z,64.63
2023-02-06T12:00:58.954Z,63.96
2023-02-06T12:03:52.067Z,65.96
2023-02-06T12:06:38.833Z,65.30
2023-02-06T12:09:11.905Z,63.91
2023-02-06T12:12:00.451Z,64.28
2023-02-06T12:14:37.131Z,63.53
2023-02-06T12:17:20.481Z,64.64
2023-02-06T12:19:57.258Z,65.93
2023-02-06T12:22:26.752Z,65.71
2023-02-06T12:24:56.572Z,64.34
2023-02-06T12:27:44.124Z,62.28
2023-02-06T12:30:36.563Z,62.31
2023-02-06T12:33:32.335Z,63.56
2023-02-06T12:36:11.580Z,64.52
2023-02-06T12:38:55.247Z,63.37
2023-02-06T12:41:25.577Z,63.44
2023-02-06T12:44:03.230Z,63.60
2023-02-06T12:46:31.086Z,63.24
2023-02-06T12:49:21.212Z,63.00
2023-02-06T12:51:55.109Z,62.69
2023-02-06T12:54:38.745Z,64.38
2023-02-06T12:57:11.217Z,62.90
2023-02-06T12:59:58.316Z,63.94
2023-02-06T13:03:04.443Z,63.35
2023-02-06T13:05:52.610Z,63.07
2023-02-06T13:08:36.854Z,64.35
2023-02-06T13:11:08.046Z,64.51
2023-02-06T13:13:39.344Z,63.02
2023-02-06T13:16:07.960Z,63.29
2023-02-06T13:18:41.138Z,64.85
2023-02-06T13:21:22.335Z,62.48
2023-02-06T13:24:17.301Z,63.47
2023-02-06T13:26:48.883Z,64.83
2023-02-06T13:29:33.488Z,63.30
2023-02-06T13:32:18.551Z,61.13
2023-02-06T13:34:48.795Z,63.07
2023-02-06T13:37:34.303Z,62.67
2023-02-06T13:40:23.418Z,62.45
2023-02-06T13:43:11.265Z,61.83
2023-02-06T13:45:46.808Z,60.83
2023-02-06T13:48:46.704Z,63.45
2023-02-06T13:51:14.260Z,61.98
2023-02-06T13:53:56.626Z,60.54
2023-02-06T13:56:42.056Z,61.33
2023-02-06T13:59:21.743Z,63.10
2023-02-06T14:01:49.221Z,61.81
2023-02-06T14:04:25.119Z,61.64
2023-02-06T14:07:10.056Z,62.67
2023-02-06T14:10:05.196Z,61.83
2023-02-06T14:13:12.101Z,61.94
2023-02-06T14:16:21.205Z,61.98
2023-02-06T14:19:05.531Z,59.76
2023-02-06T14:21:44.486Z,60.21
2023-02-06T14:24:23.709Z,61.08
2023-02-06T14:26:50.952Z,60.89
2023-02-06T14:29:36.059Z,61.02
2023-02-06T14:32:27.565Z,60.56
2023-02-06T14:35:16.005Z,61.34
2023-02-06T14:38:10.287Z,61.34
2023-02-06T14:40:42.594Z,61.58
2023-02-06T14:43:19.982Z,61.90
2023-02-06T14:46:06.181Z,62.46
2023-02-06T14:48:44.995Z,62.38
2023-02-06T14:51:26.335Z,63.52
2023-02-06T14:53:57.137Z,65.02
2023-02-06T14:56:36.707Z,65.49
2023-02-06T14:59:13.177Z,66.41
2023-02-06T15:01:41.906Z,65.67
2023-02-06T15:04:21.943Z,66.62
2023-02-06T15:06:58.526Z,66.20
2023-02-06T15:09:43.874Z,65.80
2023-02-06T15:12:20.715Z,67.61
2023-02-06T15:15:02.686Z,65.67
2023-02-06T15:17:30.926Z,67.66
2023-02-06T15:20:32.988Z,67.60
2023-02-06T15:23:17.203Z,67.54
2023-02-06T15:26:11.361Z,69.09
2023-02-06T15:28:39.395Z,69.02
2023-02-06T15:31:19.939Z,68.29
2023-02-06T15:33:51.404Z,68.48
2023-02-06T15:36:38.988Z,67.57
2023-02-06T15:39:12.625Z,68.17
2023-02-06T15:41:42.936Z,68.44
2023-02-06T15:44:19.563Z,68.46
2023-02-06T15:46:49.276Z,68.15
2023-02-06T15:49:34.210Z,68.36
2023-02-06T15:52:04.637Z,68.61
2023-02-06T15:54:32.438Z,68.65
2023-02-06T15:57:26.894Z,69.23
2023-02-06T15:59:56.770Z,69.03
2023-02-06T16:02:37.425Z,69.30
2023-02-06T16:05:08.010Z,70.42
2023-02-06T16:07:36.448Z,71.45
2023-02-06T16:10:22.323Z,70.88
2023-02-06T16:12:50.828Z,70.78
2023-02-06T16:15:24.085Z,70.11
2023-02-06T16:17:51.628Z,69.18
2023-02-06T16:20:39.761Z,69.30
2023-02-06T16:23:26.462Z,69.82
2023-02-06T16:26:17.279Z,69.45
2023-02-06T16:28:53.532Z,70.62
2023-02-06T16:31:21.533Z,70.82
2023-02-06T16:33:51.219Z,71.19
2023-02-06T16:36:24.034Z,72.59
2023-02-06T16:39:03.250Z,71.88
2023-02-06T16:41:39.477Z,72.48
2023-02-06T16:44:13.118Z,71.63
2023-02-06T16:46:40.874Z,71.91
2023-02-06T16:49:16.370Z,73.07
2023-02-06T16:51:45.916Z,71.79
2023-02-06T16:54:23.256Z,72.92
2023-02-06T16:56:51.597Z,73.45
2023-02-06T16:59:19.496Z,73.60
2023-02-06T17:01:47.280Z,73.36
2023-02-06T17:04:14.969Z,73.33
2023-02-06T17:06:44.993Z,73.20
2023-02-06T17:09:13.989Z,73.28
2023-02-06T17:11:41.413Z,73.23
2023-02-06T17:14:09.853Z,73.64
2023-02-06T17:16:37.465Z,74.68
2023-02-06T17:19:05.316Z,74.65
2023-02-06T17:21:33.248Z,74.00
2023-02-06T17:24:01.632Z,73.64
2023-02-06T17:26:29.121Z,73.80
2023-02-06T17:28:56.540Z,73.52
2023-02-06T17:31:24.040Z,73.29
2023-02-06T17:33:51.423Z,73.91
2023-02-06T17:36:26.838Z,74.18
2023-02-06T17:38:54.196Z,73.85
2023-02-06T17:41:21.521Z,73.48
2023-02-06T17:43:48.929Z,74.74
2023-02-06T17:46:17.501Z,74.59
2023-02-06T17:48:46.157Z,75.76
2023-02-06T17:51:14.049Z,74.89
2023-02-06T17:53:41.397Z,75.70
2023-02-06T17:56:12.915Z,76.58
2023-02-06T17:58:41.361Z,76.41
2023-02-06T18:01:17.405Z,77.04
2023-02-06T18:03:46.937Z,76.46
2023-02-06T18:06:15.443Z,75.12
2023-02-06T18:08:43.755Z,75.69
2023-02-06T18:11:13.821Z,76.04
2023-02-06T18:13:42.660Z,77.07
2023-02-06T18:16:15.123Z,76.19
2023-02-06T18:18:43.062Z,76.65
2023-02-06T18:21:10.491Z,76.77
2023-02-06T18:23:38.607Z,76.50
2023-02-06T18:26:08.703Z,76.57
2023-02-06T18:28:37.116Z,76.73
2023-02-06T18:31:05.359Z,76.38
2023-02-06T18:33:35.165Z,76.76
2023-02-06T18:36:06.885Z,77.03
2023-02-06T18:38:34.556Z,76.80
2023-02-06T18:41:04.319Z,77.11
2023-02-06T18:43:32.240Z,77.09
2023-02-06T18:46:06.974Z,77.15
2023-02-06T18:48:34.327Z,77.78
2023-02-06T18:51:06.829Z,77.60
2023-02-06T18:53:34.178Z,77.88
2023-02-06T18:56:01.849Z,78.60
2023-02-06T18:58:29.219Z,78.20
2023-02-06T19:00:56.515Z,77.54
2023-02-06T19:03:23.898Z,78.46
2023-02-06T19:05:51.202Z,78.31
2023-02-06T19:08:19.614Z,79.50
2023-02-06T19:10:46.975Z,78.98
2023-02-06T19:13:14.443Z,78.30
2023-02-06T19:15:41.739Z,78.42
2023-02-06T19:18:10.728Z,78.28
2023-02-06T19:20:41.419Z,78.32
2023-02-06T19:23:08.756Z,78.64
2023-02-06T19:25:36.058Z,78.80
2023-02-06T19:28:03.455Z,79.56
2023-02-06T19:30:32.197Z,80.09
2023-02-06T19:32:59.628Z,80.02
2023-02-06T19:35:28.391Z,80.32
2023-02-06T19:37:58.715Z,79.71
2023-02-06T19:40:26.045Z,80.20
2023-02-06T19:42:53.658Z,79.82
2023-02-06T19:45:21.066Z,80.23
2023-02-06T19:47:48.381Z,79.41
2023-02-06T19:50:15.817Z,80.63
2023-02-06T19:52:43.164Z,80.22
2023-02-06T19:55:13.484Z,80.82
2023-02-06T19:57:40.828Z,81.53
2023-02-06T20:00:08.972Z,81.96
2023-02-06T20:02:37.560Z,81.96
2023-02-06T20:05:05.112Z,82.20
2023-02-06T20:07:32.540Z,81.68
2023-02-06T20:09:59.932Z,82.70
2023-02-06T20:12:27.292Z,83.61
2023-02-06T20:14:54.671Z,83.44
2023-02-06T20:17:25.426Z,83.33
2023-02-06T20:19:53.790Z,82.58
2023-02-06T20:22:21.187Z,83.45
2023-02-06T20:24:48.474Z,82.67
2023-02-06T20:27:16.883Z,82.90
2023-02-06T20:29:45.835Z,83.35
2023-02-06T20:32:15.597Z,83.79
2023-02-06T20:34:42.912Z,83.73
2023-02-06T20:37:10.221Z,83.61
2023-02-06T20:39:37.828Z,83.39
2023-02-06T20:42:05.204Z,83.07
2023-02-06T20:44:32.536Z,82.44
2023-02-06T20:46:59.934Z,82.21
2023-02-06T20:49:28.741Z,82.87
2023-02-06T20:51:56.434Z,83.23
2023-02-06T20:54:25.055Z,82.56
2023-02-06T20:56:52.582Z,83.48
2023-02-06T20:59:21.051Z,83.56
2023-02-06T21:01:48.456Z,82.48
2023-02-06T21:04:17.540Z,81.84
2023-02-06T21:06:45.945Z,82.63
2023-02-06T21:09:13.874Z,82.23
2023-02-06T21:11:49.513Z,83.49
2023-02-06T21:14:17.716Z,82.44
2023-02-06T21:16:45.140Z,81.34
2023-02-06T21:19:14.885Z,81.39
2023-02-06T21:21:45.599Z,80.34
2023-02-06T21:24:14.446Z,80.67
2023-02-06T21:26:42.157Z,81.10
2023-02-06T21:29:10.732Z,80.90
2023-02-06T21:31:38.955Z,80.07
2023-02-06T21:34:19.037Z,80.55
2023-02-06T21:36:46.871Z,80.56
2023-02-06T21:39:17.266Z,80.67
2023-02-06T21:41:45.247Z,80.52
2023-02-06T21:44:12.670Z,79.61
2023-02-06T21:46:40.352Z,80.13
2023-02-06T21:49:09.283Z,80.82
2023-02-06T21:51:36.546Z,80.30
2023-02-06T21:54:04.118Z,80.17
2023-02-06T21:56:31.532Z,80.76
2023-02-06T21:58:58.883Z,80.23
2023-02-06T22:01:29.217Z,80.35
2023-02-06T22:03:58.017Z,80.20
2023-02-06T22:06:26.909Z,79.18
2023-02-06T22:08:56.513Z,79.64
2023-02-06T22:11:26.396Z,80.10
2023-02-06T22:13:58.759Z,80.06
2023-02-06T22:16:26.956Z,81.02
2023-02-06T22:18:55.493Z,80.74
2023-02-06T22:21:25.456Z,80.94
2023-02-06T22:23:55.461Z,81.63
2023-02-06T22:26:23.117Z,81.96
2023-02-06T22:28:50.828Z,82.06
2023-02-06T22:31:22.565Z,81.84
2023-02-06T22:33:50.243Z,80.55
2023-02-06T22:36:23.516Z,81.07
2023-02-06T22:38:57.136Z,81.68
2023-02-06T22:41:24.441Z,81.98
2023-02-06T22:43:51.981Z,81.50
2023-02-06T22:46:28.496Z,81.78
2023-02-06T22:48:55.973Z,82.54
2023-02-06T22:51:23.482Z,81.30
2023-02-06T22:53:51.161Z,80.69
2023-02-06T22:56:27.275Z,80.93
2023-02-06T22:58:56.578Z,80.13
2023-02-06T23:01:27.677Z,80.91
2023-02-06T23:03:56.081Z,80.75
2023-02-06T23:06:24.024Z,81.13
2023-02-06T23:08:51.554Z,80.22
2023-02-06T23:11:19.430Z,80.50
2023-02-06T23:13:46.712Z,81.31
2023-02-06T23:16:14.095Z,81.61
2023-02-06T23:18:41.357Z,80.83
2023-02-06T23:21:10.862Z,81.28
2023-02-06T23:23:39.504Z,82.64
2023-02-06T23:26:10.331Z,82.22
2023-02-06T23:28:38.601Z,81.23
2023-02-06T23:31:06.847Z,81.96
2023-02-06T23:33:34.546Z,81.30
2023-02-06T23:36:07.034Z,81.17
2023-02-06T23:38:34.523Z,80.76
2023-02-06T23:41:13.278Z,81.31
2023-02-06T23:43:41.006Z,80.78
2023-02-06T23:46:11.981Z,80.18
2023-02-06T23:48:39.954Z,80.47
2023-02-06T23:51:07.404Z,80.36
2023-02-06T23:53:35.078Z,80.56
2023-02-06T23:56:09.336Z,80.92
2023-02-06T23:58:36.771Z,80.74
